createdAt,value
2022-09-23T00:00:18.088Z,11
2022-09-23T00:05:17.609Z,11
2022-09-23T00:10:17.806Z,11
2022-09-23T00:15:17.697Z,11
2022-09-23T00:20:17.709Z,11
2022-09-23T00:25:17.618Z,11
2022-09-23T00:30:18.494Z,12
2022-09-23T00:35:17.628Z,11
2022-09-23T00:40:17.796Z,12
2022-09-23T00:45:17.811Z,12
2022-09-23T00:50:17.919Z,11
2022-09-23T00:55:17.796Z,13
2022-09-23T01:00:18.228Z,14
2022-09-23T01:05:17.851Z,14
2022-09-23T01:10:17.966Z,14
2022-09-23T01:15:17.782Z,15
2022-09-23T01:20:18.039Z,14
2022-09-23T01:25:17.841Z,13
2022-09-23T01:30:18.036Z,14
2022-09-23T01:35:17.800Z,14
2022-09-23T01:40:18.423Z,15
2022-09-23T01:45:17.926Z,16
2022-09-23T01:50:17.912Z,17
2022-09-23T01:55:17.757Z,15
2022-09-23T02:00:18.146Z,15
2022-09-23T02:05:17.877Z,15
2022-09-23T02:10:18.117Z,16
2022-09-23T02:15:18.370Z,16
2022-09-23T02:20:18.243Z,14
2022-09-23T02:25:17.922Z,16
2022-09-23T02:30:18.202Z,14
2022-09-23T02:35:18.118Z,14
2022-09-23T02:40:18.209Z,15
2022-09-23T02:45:18.094Z,18
2022-09-23T02:50:18.321Z,17
2022-09-23T02:55:17.973Z,18
2022-09-23T03:00:18.253Z,18
2022-09-23T03:05:18.018Z,20
2022-09-23T03:10:18.265Z,20
2022-09-23T03:15:18.329Z,19
2022-09-23T03:20:18.043Z,20
2022-09-23T03:25:18.170Z,21
2022-09-23T03:30:18.525Z,21
2022-09-23T03:35:18.125Z,20
2022-09-23T03:40:18.198Z,22
2022-09-23T03:45:18.146Z,22
2022-09-23T03:50:18.326Z,22
2022-09-23T03:55:18.693Z,21
2022-09-23T04:00:18.377Z,22
2022-09-23T04:05:17.190Z,22
2022-09-23T04:10:17.309Z,22
2022-09-23T04:15:17.257Z,22
2022-09-23T04:20:17.285Z,22
2022-09-23T04:25:17.281Z,21
2022-09-23T04:30:17.575Z,21
2022-09-23T04:35:17.139Z,20
2022-09-23T04:40:17.555Z,21
2022-09-23T04:45:17.637Z,23
2022-09-23T04:50:17.380Z,20
2022-09-23T04:55:17.238Z,20
2022-09-23T05:00:17.441Z,22
2022-09-23T05:05:17.375Z,24
2022-09-23T05:10:17.777Z,24
2022-09-23T05:15:17.352Z,24
2022-09-23T05:20:17.477Z,22
2022-09-23T05:25:17.285Z,22
2022-09-23T05:30:17.505Z,22
2022-09-23T05:35:17.295Z,21
2022-09-23T05:40:17.797Z,22
2022-09-23T05:45:17.345Z,23
2022-09-23T05:50:17.596Z,23
2022-09-23T05:55:17.311Z,25
2022-09-23T06:00:17.726Z,24
2022-09-23T06:05:17.494Z,21
2022-09-23T06:10:17.490Z,24
2022-09-23T06:15:17.617Z,24
2022-09-23T06:20:18.565Z,26
2022-09-23T06:25:17.453Z,24
2022-09-23T06:30:17.497Z,23
2022-09-23T06:35:26.638Z,19
2022-09-23T06:40:17.703Z,18
2022-09-23T06:45:17.646Z,20
2022-09-23T06:50:17.697Z,17
2022-09-23T06:55:17.484Z,19
2022-09-23T07:00:17.962Z,18
2022-09-23T07:05:17.483Z,19
2022-09-23T07:10:17.729Z,19
2022-09-23T07:15:17.709Z,21
2022-09-23T07:20:18.078Z,19
2022-09-23T07:25:17.525Z,19
2022-09-23T07:30:24.519Z,19
2022-09-23T07:35:17.550Z,21
2022-09-23T07:40:19.198Z,20
2022-09-23T07:45:17.653Z,22
2022-09-23T07:50:17.851Z,22
2022-09-23T07:55:21.027Z,22
2022-09-23T08:00:18.181Z,22
2022-09-23T08:05:17.708Z,22
2022-09-23T08:10:17.783Z,21
2022-09-23T08:15:17.852Z,21
2022-09-23T08:20:18.038Z,21
2022-09-23T08:25:21.106Z,22
2022-09-23T08:30:18.263Z,21
2022-09-23T08:35:17.659Z,20
2022-09-23T08:40:18.217Z,24
2022-09-23T08:45:17.851Z,26
2022-09-23T08:50:17.891Z,24
2022-09-23T08:55:17.757Z,24
2022-09-23T09:00:17.970Z,22
2022-09-23T09:05:18.508Z,24
2022-09-23T09:10:18.023Z,23
2022-09-23T09:15:17.969Z,25
2022-09-23T09:20:17.892Z,24
2022-09-23T09:25:17.814Z,24
2022-09-23T09:30:18.242Z,23
2022-09-23T09:35:17.821Z,21
2022-09-23T09:40:18.132Z,23
2022-09-23T09:45:19.780Z,22
2022-09-23T09:50:18.239Z,21
2022-09-23T09:55:17.724Z,21
2022-09-23T10:00:18.034Z,21
2022-09-23T10:05:17.785Z,21
2022-09-23T10:10:31.877Z,20
2022-09-23T10:15:17.857Z,21
2022-09-23T10:20:18.107Z,24
2022-09-23T10:25:17.974Z,25
2022-09-23T10:30:18.171Z,23
2022-09-23T10:35:17.887Z,24
2022-09-23T10:40:18.265Z,24
2022-09-23T10:45:18.415Z,23
2022-09-23T10:50:18.013Z,24
2022-09-23T10:55:17.919Z,23
2022-09-23T11:00:18.522Z,23
2022-09-23T11:05:17.981Z,23
2022-09-23T11:10:41.961Z,23
2022-09-23T11:15:18.229Z,24
2022-09-23T11:20:18.234Z,24
2022-09-23T11:25:18.048Z,23
2022-09-23T11:30:19.402Z,22
2022-09-23T11:35:17.979Z,22
2022-09-23T11:40:18.125Z,23
2022-09-23T11:45:18.225Z,22
2022-09-23T11:50:18.854Z,23
2022-09-23T11:55:22.802Z,24
2022-09-23T12:00:18.333Z,22
2022-09-23T12:05:18.176Z,23
2022-09-23T12:10:18.259Z,23
2022-09-23T12:15:16.278Z,22
2022-09-23T12:20:16.250Z,21
2022-09-23T12:25:16.311Z,22
2022-09-23T12:30:16.461Z,22
2022-09-23T12:35:16.246Z,22
2022-09-23T12:40:16.294Z,21
2022-09-23T12:45:16.288Z,23
2022-09-23T12:50:18.464Z,23
2022-09-23T12:55:17.044Z,24
2022-09-23T13:00:16.364Z,23
2022-09-23T13:05:16.220Z,24
2022-09-23T13:10:16.223Z,23
2022-09-23T13:15:16.342Z,24
2022-09-23T13:20:16.353Z,25
2022-09-23T13:25:16.241Z,23
2022-09-23T13:30:17.017Z,21
2022-09-23T13:35:16.323Z,22
2022-09-23T13:40:16.400Z,25
2022-09-23T13:45:16.317Z,24
2022-09-23T13:50:16.410Z,25
2022-09-23T13:55:16.294Z,25
2022-09-23T14:00:16.500Z,25
2022-09-23T14:05:16.601Z,27
2022-09-23T14:10:17.343Z,26
2022-09-23T14:15:16.573Z,25
2022-09-23T14:20:16.403Z,25
2022-09-23T14:25:16.439Z,25
2022-09-23T14:30:16.714Z,24
2022-09-23T14:35:16.533Z,23
2022-09-23T14:40:16.629Z,22
2022-09-23T14:45:16.564Z,23
2022-09-23T14:50:16.489Z,25
2022-09-23T14:55:16.555Z,25
2022-09-23T15:00:16.657Z,24
2022-09-23T15:05:16.571Z,24
2022-09-23T15:10:16.736Z,22
2022-09-23T15:15:16.703Z,22
2022-09-23T15:20:16.650Z,22
2022-09-23T15:25:16.818Z,25
2022-09-23T15:30:16.661Z,24
2022-09-23T15:35:17.240Z,25
2022-09-23T15:40:16.874Z,23
2022-09-23T15:45:16.898Z,21
2022-09-23T15:50:16.783Z,21
2022-09-23T15:55:16.547Z,20
2022-09-23T16:00:16.793Z,21
2022-09-23T16:05:16.596Z,21
2022-09-23T16:10:16.665Z,21
2022-09-23T16:15:16.852Z,21
2022-09-23T16:20:17.001Z,22
2022-09-23T16:25:16.807Z,23
2022-09-23T16:30:16.914Z,24
2022-09-23T16:35:16.661Z,25
2022-09-23T16:40:16.947Z,25
2022-09-23T16:45:16.694Z,24
2022-09-23T16:50:16.866Z,21
2022-09-23T16:55:17.877Z,22
2022-09-23T17:00:17.107Z,23
2022-09-23T17:05:17.403Z,22
2022-09-23T17:10:16.906Z,23
2022-09-23T17:15:17.192Z,23
2022-09-23T17:20:16.969Z,23
2022-09-23T17:25:16.960Z,22
2022-09-23T17:30:17.421Z,24
2022-09-23T17:35:16.975Z,23
2022-09-23T17:40:17.158Z,22
2022-09-23T17:45:16.998Z,21
2022-09-23T17:50:17.022Z,24
2022-09-23T17:55:16.876Z,21
2022-09-23T18:00:17.213Z,23
2022-09-23T18:05:17.061Z,23
2022-09-23T18:10:17.224Z,24
2022-09-23T18:15:20.084Z,23
2022-09-23T18:20:17.005Z,23
2022-09-23T18:25:37.654Z,22
2022-09-23T18:30:17.205Z,21
2022-09-23T18:35:16.960Z,23
2022-09-23T18:40:17.185Z,23
2022-09-23T18:45:17.284Z,23
2022-09-23T18:50:17.179Z,22
2022-09-23T18:55:16.984Z,24
2022-09-23T19:00:17.301Z,24
2022-09-23T19:05:16.992Z,22
2022-09-23T19:10:17.296Z,24
2022-09-23T19:15:17.180Z,24
2022-09-23T19:20:18.250Z,24
2022-09-23T19:25:16.983Z,23
2022-09-23T19:30:17.173Z,24
2022-09-23T20:05:26.022Z,25
2022-09-23T20:10:17.395Z,28
2022-09-23T20:15:17.574Z,27
2022-09-23T20:20:17.444Z,30
2022-09-23T20:25:17.269Z,31
2022-09-23T20:30:17.477Z,26
2022-09-23T20:35:17.145Z,29
2022-09-23T20:40:17.279Z,29
2022-09-23T20:45:17.298Z,29
2022-09-23T21:10:17.315Z,30
2022-09-23T21:15:17.547Z,30
2022-09-23T21:20:18.192Z,29
2022-09-23T21:25:32.755Z,29
2022-09-23T21:30:17.689Z,28
2022-09-23T21:35:17.506Z,26
2022-09-23T21:40:17.529Z,27
2022-09-23T21:45:17.599Z,27
2022-09-23T21:50:17.493Z,28
2022-09-23T21:55:17.250Z,28
2022-09-23T22:00:17.598Z,31
2022-09-23T22:05:17.332Z,24
2022-09-23T22:10:17.615Z,26
2022-09-23T22:15:17.441Z,25
2022-09-23T22:20:17.529Z,27
2022-09-23T22:25:17.466Z,27
2022-09-23T22:30:17.690Z,32
2022-09-23T22:35:17.436Z,27
2022-09-23T22:40:17.597Z,27
2022-09-23T22:45:19.062Z,27
2022-09-23T22:50:17.751Z,27
2022-09-23T22:55:17.454Z,27
2022-09-23T23:00:17.692Z,29
2022-09-23T23:05:17.477Z,27
2022-09-23T23:10:17.552Z,29
2022-09-23T23:15:17.643Z,27
2022-09-23T23:20:17.844Z,29
2022-09-23T23:25:17.552Z,30
2022-09-23T23:50:17.840Z,29
2022-09-23T23:55:17.961Z,31
